Hauptseite
METAR-TAF:

METAR-TAF

Flughäfen :

Jekaterinburg, Russland

Flughafen Jekaterinburg

Breite: 56-50N, Länge: 060-38E, Höhe: 237 m

Beobachtung

Neuester Wetterbericht von vor 34 Minuten, um 13:30 UTC
Wind 8 kt aus West
Temperatur 1°C
Luftfeuchtigkeit 80%
Luftdruck 1014 hPa
Sichtweite 10 km oder mehr
Geschlossene Wolkendecke in der Höhe von 3200 ft

METAR: USSS 241330Z 26004MPS 9999 OVC032 01/M02 Q1014 R26R/290050 NOSIG RMK QFE740/0986

Zeit: 19:04 (14:04 UTC)

Prognose

Neuester Wetterbericht von vor 3 Stunden und 5 Minuten, um 10:59 UTC
Gültige Prognose vom 24 um 12 UTC bis 25 um 12 UTC
Wind 8 kt aus West
Sichtweite 10 km oder mehr
Aufgelockert bewölkt in der Höhe von 1000 ft
Durchbrochene Bewölkung in der Höhe von 2000 ft, Kumulonimbus.
Zeitweise
vom 24 um 12 UTC bis 24 um 18 UTC
Wind 17 kt aus West

TAF: USSS 241059Z 2412/2512 27004MPS 9999 SCT010 BKN020CB TEMPO 2412/2418 28009MPS

Wetterbeobachtungen und Prognosen von mehr als 4000 Flughäfen (METAR und TAF Bericht).

Die verfügbaren Stationen werden durch gelbe und rote Markierungen auf der Karte dargestellt.

Führen Sie die Maus auf sie, um den Namen der Station zu sehen.

Darauf klicken, um die Beobachtung von Wetterbeobachtungen und Prognosen zu sehen.

Um die Karte zu ändern : klicken Sie auf den grünen Tasten mit einem schwarzen Kreuz Zum Vergrößern, auf den grünen Button mit einem Gedankenstrich zu verkleinern, oder auf die grünen Pfeile für benachbarte Karten.


METAR-TAF: